Time;durP1;ratioP1;P1;durP2;ratioP2;P2;SDS_P1;SDS_P2;PMS_P1;PMS_P2;Temp;Humidity;BMP_temperature;BMP_pressure;BME280_temperature;BME280_humidity;BME280_pressure;Samples;Min_cycle;Max_cycle;Signal;HPM_P1;HPM_P2
2022/12/03 00:00:08;;;;;;;6.30;4.95;;;7.30;90.70;;;;;;5027684;28;20193;-54
2022/12/03 00:02:40;;;;;;;7.53;6.03;;;7.30;90.80;;;;;;5035491;28;20220;-52
2022/12/03 00:05:10;;;;;;;5.95;5.35;;;7.30;90.80;;;;;;5028355;28;20296;-50
2022/12/03 00:07:40;;;;;;;5.78;5.15;;;7.20;90.80;;;;;;5058679;28;20213;-52
2022/12/03 00:10:09;;;;;;;8.55;5.20;;;7.20;90.80;;;;;;5029929;28;20249;-50
2022/12/03 00:12:38;;;;;;;7.28;5.30;;;7.20;90.80;;;;;;5019796;28;20220;-55
2022/12/03 00:15:08;;;;;;;8.48;5.60;;;7.20;90.80;;;;;;5034278;28;20228;-52
2022/12/03 00:17:36;;;;;;;7.18;5.65;;;7.30;90.70;;;;;;5018766;28;20247;-55
2022/12/03 00:20:06;;;;;;;8.18;6.70;;;7.20;90.80;;;;;;5060939;28;21004;-51
2022/12/03 00:22:35;;;;;;;6.07;5.13;;;7.20;90.80;;;;;;5027965;28;20224;-51
2022/12/03 00:25:06;;;;;;;6.22;5.18;;;7.20;90.70;;;;;;5036332;28;20656;-52
2022/12/03 00:27:35;;;;;;;5.93;4.82;;;7.20;90.80;;;;;;5061701;28;20219;-53
2022/12/03 00:30:05;;;;;;;5.43;4.75;;;7.20;90.80;;;;;;5032330;28;20598;-52
2022/12/03 00:32:33;;;;;;;5.57;5.05;;;7.20;90.80;;;;;;5019362;28;20225;-53
2022/12/03 00:35:02;;;;;;;6.63;5.22;;;7.20;90.80;;;;;;5013701;28;20205;-50
2022/12/03 00:37:31;;;;;;;5.47;4.95;;;7.20;90.80;;;;;;5009546;28;20282;-53
2022/12/03 00:39:59;;;;;;;6.68;5.47;;;7.20;90.80;;;;;;5024332;28;20194;-51
2022/12/03 00:42:30;;;;;;;6.05;5.38;;;7.20;90.80;;;;;;5044075;28;20285;-55
2022/12/03 00:44:58;;;;;;;6.40;4.82;;;7.20;90.80;;;;;;5041573;28;20293;-55
2022/12/03 00:47:27;;;;;;;7.03;5.85;;;7.30;90.80;;;;;;5071815;28;20232;-54
2022/12/03 00:49:55;;;;;;;6.40;5.18;;;7.20;90.80;;;;;;5041531;28;20197;-55
2022/12/03 00:52:24;;;;;;;4.68;3.88;;;7.20;90.80;;;;;;5041643;28;20239;-51
2022/12/03 00:54:52;;;;;;;7.70;5.13;;;7.20;90.80;;;;;;5043158;28;20213;-55
2022/12/03 00:57:21;;;;;;;4.65;4.15;;;7.20;90.80;;;;;;5041755;28;20685;-55
2022/12/03 00:59:51;;;;;;;6.55;5.82;;;7.20;90.80;;;;;;5034001;28;20305;-50
2022/12/03 01:02:20;;;;;;;6.07;4.30;;;7.20;90.80;;;;;;5002979;28;20225;-50
2022/12/03 01:04:52;;;;;;;5.30;4.78;;;7.20;90.80;;;;;;5008613;28;20241;-50
2022/12/03 01:07:21;;;;;;;6.80;5.63;;;7.20;90.80;;;;;;5007264;28;20221;-53
2022/12/03 01:09:50;;;;;;;5.28;4.20;;;7.20;90.80;;;;;;5011166;28;20201;-51
2022/12/03 01:12:19;;;;;;;6.20;5.05;;;7.20;90.80;;;;;;5013462;28;20221;-50
2022/12/03 01:14:47;;;;;;;6.30;4.75;;;7.20;90.80;;;;;;5006971;28;20708;-50
2022/12/03 01:17:17;;;;;;;5.63;5.00;;;7.20;90.80;;;;;;5022126;28;20233;-51
2022/12/03 01:19:46;;;;;;;6.43;4.70;;;7.20;90.80;;;;;;5036023;28;20201;-51
2022/12/03 01:22:16;;;;;;;5.47;4.35;;;7.20;90.80;;;;;;5026534;28;20246;-50
2022/12/03 01:24:44;;;;;;;7.05;4.68;;;7.20;90.80;;;;;;5025022;28;20209;-50
2022/12/03 01:27:13;;;;;;;5.90;5.28;;;7.20;90.80;;;;;;5023601;28;20220;-52
2022/12/03 01:29:41;;;;;;;6.57;5.88;;;7.20;90.80;;;;;;5057492;28;20287;-51
2022/12/03 01:32:18;;;;;;;7.97;5.88;;;7.20;90.80;;;;;;5026275;28;20217;-51
2022/12/03 01:34:50;;;;;;;4.35;3.95;;;7.20;90.80;;;;;;5026239;28;20715;-52
2022/12/03 01:37:21;;;;;;;5.78;4.75;;;7.20;90.70;;;;;;5018721;28;20703;-54
2022/12/03 01:39:51;;;;;;;5.47;4.20;;;7.20;91.20;;;;;;5002525;28;20191;-52
2022/12/03 01:42:22;;;;;;;6.88;4.90;;;7.20;90.80;;;;;;5004294;28;20232;-50
2022/12/03 01:44:52;;;;;;;6.38;4.95;;;7.20;90.80;;;;;;5033897;28;20271;-50
2022/12/03 01:47:26;;;;;;;5.22;4.25;;;7.20;90.80;;;;;;5010178;28;21000;-50
2022/12/03 01:50:00;;;;;;;4.65;4.15;;;7.20;90.80;;;;;;5000147;28;20186;-51
2022/12/03 01:52:32;;;;;;;5.40;4.90;;;7.20;90.80;;;;;;5007433;28;20225;-51
2022/12/03 01:55:02;;;;;;;6.93;4.60;;;7.20;90.80;;;;;;5007348;28;20217;-52
2022/12/03 01:57:39;;;;;;;7.00;4.75;;;7.20;90.80;;;;;;5007058;28;20217;-52
2022/12/03 02:00:11;;;;;;;5.22;4.72;;;7.10;90.80;;;;;;4994450;28;20187;-50
2022/12/03 02:02:40;;;;;;;5.50;4.65;;;7.20;90.80;;;;;;5019080;28;20224;-50
2022/12/03 02:05:17;;;;;;;5.70;4.65;;;7.10;90.70;;;;;;5024805;28;20271;-49
2022/12/03 02:07:46;;;;;;;4.55;4.10;;;7.20;90.80;;;;;;5024938;28;20303;-52
2022/12/03 02:10:18;;;;;;;5.25;3.83;;;7.10;90.80;;;;;;5030618;28;20192;-50
2022/12/03 02:12:51;;;;;;;4.72;3.88;;;7.10;90.70;;;;;;5026378;28;20225;-51
2022/12/03 02:15:24;;;;;;;4.90;4.10;;;7.20;90.80;;;;;;5028246;28;20622;-51
2022/12/03 02:17:53;;;;;;;5.38;4.50;;;7.10;90.70;;;;;;5032041;28;20256;-54
2022/12/03 02:20:23;;;;;;;6.15;4.22;;;7.10;90.70;;;;;;5041815;28;20203;-51
2022/12/03 02:23:00;;;;;;;5.13;4.15;;;7.10;90.80;;;;;;5060475;28;20221;-52
2022/12/03 02:25:33;;;;;;;5.90;4.15;;;7.10;90.70;;;;;;5036141;28;20201;-50
2022/12/03 02:28:04;;;;;;;4.75;3.50;;;7.10;90.70;;;;;;5008662;28;20257;-52
2022/12/03 02:30:33;;;;;;;5.88;4.32;;;7.10;90.70;;;;;;5012737;28;20201;-53
2022/12/03 02:33:02;;;;;;;4.63;3.30;;;7.10;90.70;;;;;;5011202;28;20684;-54
2022/12/03 02:35:33;;;;;;;5.65;4.35;;;7.10;90.70;;;;;;5003005;28;20201;-52
2022/12/03 02:38:08;;;;;;;5.00;4.35;;;7.10;90.70;;;;;;5008382;28;20221;-50
2022/12/03 02:40:42;;;;;;;5.07;4.45;;;7.10;90.70;;;;;;5025238;28;20189;-53
2022/12/03 02:43:10;;;;;;;5.85;4.03;;;7.10;90.70;;;;;;5009439;28;20190;-53
2022/12/03 02:45:42;;;;;;;4.75;3.78;;;7.10;90.70;;;;;;5007896;28;20190;-52
2022/12/03 02:48:14;;;;;;;4.97;4.43;;;7.10;90.70;;;;;;5008664;28;20535;-53
2022/12/03 02:50:48;;;;;;;5.00;3.85;;;7.10;90.70;;;;;;5014287;28;20198;-51
2022/12/03 02:53:19;;;;;;;4.22;3.83;;;7.10;90.70;;;;;;5008915;28;20226;-53
2022/12/03 02:55:50;;;;;;;5.00;4.00;;;7.10;90.70;;;;;;5008326;28;20202;-52
2022/12/03 02:58:19;;;;;;;3.97;3.63;;;7.10;90.70;;;;;;5006587;28;20214;-54
2022/12/03 03:00:53;;;;;;;4.00;3.60;;;7.10;91.20;;;;;;5004043;28;20194;-49
2022/12/03 03:03:23;;;;;;;4.22;3.83;;;7.10;90.70;;;;;;5009989;28;20255;-50
2022/12/03 03:05:52;;;;;;;3.50;3.20;;;7.10;90.70;;;;;;5009265;28;20306;-50
2022/12/03 03:08:21;;;;;;;4.68;3.72;;;7.10;90.70;;;;;;5011393;28;20578;-49
2022/12/03 03:10:51;;;;;;;5.03;3.75;;;7.10;90.70;;;;;;4993403;28;20194;-52
2022/12/03 03:13:20;;;;;;;5.75;4.65;;;7.10;90.70;;;;;;5003482;28;20703;-52
2022/12/03 03:15:49;;;;;;;4.40;4.00;;;7.10;90.70;;;;;;4993185;28;20264;-51
2022/12/03 03:18:18;;;;;;;5.88;3.88;;;7.10;90.70;;;;;;5008640;28;20190;-51
2022/12/03 03:20:47;;;;;;;4.10;3.70;;;7.10;90.70;;;;;;5012411;28;20197;-51
2022/12/03 03:23:18;;;;;;;5.10;3.38;;;7.10;90.70;;;;;;5012900;28;20308;-53
2022/12/03 03:25:49;;;;;;;5.60;3.70;;;7.10;90.70;;;;;;5012814;28;20728;-51
2022/12/03 03:28:20;;;;;;;4.40;4.00;;;7.10;90.70;;;;;;5003784;28;20211;-54
2022/12/03 03:30:49;;;;;;;5.18;3.95;;;7.10;90.70;;;;;;4999156;28;20202;-52
2022/12/03 03:33:17;;;;;;;4.15;3.70;;;7.10;90.70;;;;;;4989308;28;20226;-51
2022/12/03 03:35:47;;;;;;;4.38;3.95;;;7.10;90.70;;;;;;4996479;28;20190;-51
2022/12/03 03:38:18;;;;;;;4.07;3.67;;;7.10;90.70;;;;;;5008026;28;20202;-52
2022/12/03 03:40:47;;;;;;;5.43;4.20;;;7.10;90.70;;;;;;5015697;28;20290;-52
2022/12/03 03:43:16;;;;;;;5.85;4.53;;;7.10;90.70;;;;;;5023577;28;20225;-52
2022/12/03 03:45:46;;;;;;;4.05;3.40;;;7.00;90.70;;;;;;5011291;28;20185;-52
2022/12/03 03:48:15;;;;;;;5.00;3.80;;;7.10;90.70;;;;;;4995350;28;20194;-51
2022/12/03 03:50:45;;;;;;;3.22;2.92;;;7.10;90.70;;;;;;5015962;28;20855;-52
2022/12/03 03:53:14;;;;;;;5.38;4.40;;;7.10;90.70;;;;;;5000613;28;20236;-52
2022/12/03 03:55:42;;;;;;;4.00;3.60;;;7.10;90.70;;;;;;5002740;28;20236;-50
2022/12/03 03:58:11;;;;;;;4.82;3.70;;;7.10;90.70;;;;;;5007876;28;20198;-49
2022/12/03 04:00:43;;;;;;;4.68;4.13;;;7.10;90.70;;;;;;5006218;28;20206;-53
2022/12/03 04:03:13;;;;;;;4.65;3.70;;;7.00;90.70;;;;;;5013525;28;20230;-49
2022/12/03 04:05:41;;;;;;;3.78;3.47;;;7.00;90.70;;;;;;5013278;28;20559;-53
2022/12/03 04:08:10;;;;;;;4.82;3.70;;;7.00;91.20;;;;;;5012002;28;20657;-53
2022/12/03 04:13:24;;;;;;;4.85;3.72;;;7.00;90.70;;;;;;5007680;28;20217;-49
2022/12/03 04:15:53;;;;;;;4.10;2.95;;;7.00;90.70;;;;;;4999868;28;20233;-51
2022/12/03 04:23:55;;;;;;;4.75;4.30;;;7.00;90.70;;;;;;5006725;28;20705;-50
2022/12/03 04:29:09;;;;;;;3.53;3.20;;;7.00;90.70;;;;;;5015031;28;20193;-53
2022/12/03 04:37:12;;;;;;;4.57;3.75;;;7.00;90.70;;;;;;5020563;28;20218;-53
2022/12/03 04:39:41;;;;;;;3.92;3.40;;;7.00;90.70;;;;;;5011936;28;20220;-52
2022/12/03 04:42:09;;;;;;;5.90;3.35;;;7.00;90.60;;;;;;5006573;28;20226;-50
2022/12/03 04:44:37;;;;;;;4.47;3.97;;;7.00;91.10;;;;;;5006201;28;20206;-48
2022/12/03 04:47:09;;;;;;;4.03;3.33;;;7.00;90.70;;;;;;5025420;28;20220;-49
2022/12/03 04:49:41;;;;;;;3.63;3.25;;;7.00;90.60;;;;;;5026863;28;20188;-50
2022/12/03 04:52:10;;;;;;;5.03;3.42;;;7.00;90.60;;;;;;5026950;28;20236;-49
2022/12/03 04:54:40;;;;;;;3.58;2.97;;;7.00;90.60;;;;;;5026774;28;20221;-52
2022/12/03 04:57:08;;;;;;;3.88;2.85;;;7.00;90.70;;;;;;5027523;28;20275;-51
2022/12/03 04:59:38;;;;;;;3.50;3.08;;;7.00;90.60;;;;;;5027176;28;20217;-50
2022/12/03 05:02:07;;;;;;;4.45;3.55;;;7.00;90.70;;;;;;5023149;28;20312;-50
2022/12/03 05:04:36;;;;;;;5.18;3.80;;;7.00;90.70;;;;;;5006904;28;20276;-54
2022/12/03 05:07:06;;;;;;;4.88;3.45;;;7.00;90.70;;;;;;5005558;28;20272;-54
2022/12/03 05:09:34;;;;;;;5.70;3.58;;;7.00;90.60;;;;;;5035974;28;20197;-51
2022/12/03 05:12:03;;;;;;;4.53;3.10;;;7.00;90.70;;;;;;5028910;28;20237;-52
2022/12/03 05:14:32;;;;;;;5.82;3.70;;;7.00;90.70;;;;;;5007238;28;20229;-50
2022/12/03 05:17:00;;;;;;;3.38;3.08;;;7.00;90.70;;;;;;5015915;28;20584;-55
2022/12/03 05:22:13;;;;;;;4.35;3.20;;;7.00;90.60;;;;;;5016164;28;20229;-53
2022/12/03 05:24:42;;;;;;;4.72;2.97;;;7.00;90.60;;;;;;5036444;28;20560;-52
2022/12/03 05:27:11;;;;;;;4.85;3.20;;;7.00;90.70;;;;;;5027385;28;20217;-53
2022/12/03 05:29:39;;;;;;;3.63;2.78;;;7.00;90.60;;;;;;5025974;28;20243;-52
2022/12/03 05:32:08;;;;;;;4.10;3.67;;;7.00;90.70;;;;;;5020073;28;20689;-52
2022/12/03 05:34:36;;;;;;;3.55;2.90;;;6.90;90.60;;;;;;5006561;28;20576;-51
2022/12/03 05:37:05;;;;;;;5.60;3.40;;;7.00;90.70;;;;;;5002636;28;20219;-54
2022/12/03 05:39:35;;;;;;;3.95;3.17;;;6.90;90.60;;;;;;5005168;28;20193;-52
2022/12/03 05:44:50;;;;;;;3.92;3.42;;;6.90;90.60;;;;;;5024515;28;20217;-50
2022/12/03 05:47:19;;;;;;;4.20;3.20;;;6.90;90.60;;;;;;5024252;28;20228;-51
2022/12/03 05:49:47;;;;;;;4.15;2.83;;;6.90;90.70;;;;;;5026636;28;20598;-52
2022/12/03 05:52:16;;;;;;;4.38;3.60;;;6.90;90.60;;;;;;5013956;28;20236;-51
2022/12/03 05:54:46;;;;;;;3.53;3.22;;;6.90;90.60;;;;;;5005879;28;20209;-51
2022/12/03 05:57:15;;;;;;;6.53;3.30;;;6.90;90.70;;;;;;5015252;28;20244;-50
2022/12/03 05:59:43;;;;;;;4.85;2.70;;;6.90;90.60;;;;;;5052519;28;20216;-51
2022/12/03 06:02:12;;;;;;;4.65;2.95;;;6.90;90.60;;;;;;5033359;28;20645;-53
2022/12/03 06:04:41;;;;;;;4.47;3.20;;;6.90;90.60;;;;;;5033179;28;20744;-51
2022/12/03 06:07:09;;;;;;;3.58;3.15;;;6.90;90.60;;;;;;5009325;28;20267;-50
2022/12/03 06:09:41;;;;;;;4.40;2.65;;;6.90;90.60;;;;;;5046097;28;20576;-50
2022/12/03 06:12:11;;;;;;;5.07;3.90;;;6.90;90.60;;;;;;5054522;28;20221;-49
2022/12/03 06:14:41;;;;;;;3.78;3.00;;;6.90;90.60;;;;;;5020641;28;20304;-51
2022/12/03 06:17:09;;;;;;;4.47;3.65;;;6.90;90.60;;;;;;5019355;28;20594;-50
2022/12/03 06:19:38;;;;;;;3.08;2.78;;;6.90;90.60;;;;;;5017731;28;20256;-55
2022/12/03 06:22:07;;;;;;;3.15;2.70;;;6.90;90.60;;;;;;5015197;28;20231;-51
2022/12/03 06:24:36;;;;;;;3.33;2.85;;;6.90;90.60;;;;;;5006519;28;20213;-52
2022/12/03 06:27:04;;;;;;;3.92;3.05;;;6.90;90.60;;;;;;5008670;28;20217;-53
2022/12/03 06:29:35;;;;;;;4.60;3.03;;;6.90;90.60;;;;;;5023715;28;20206;-52
2022/12/03 06:32:04;;;;;;;3.70;3.00;;;6.90;90.60;;;;;;5028672;28;20608;-51
2022/12/03 06:34:32;;;;;;;4.38;2.67;;;6.90;90.60;;;;;;5031090;28;20216;-54
2022/12/03 06:37:01;;;;;;;3.45;2.80;;;6.90;90.60;;;;;;5018237;28;20245;-51
2022/12/03 06:39:30;;;;;;;3.92;3.08;;;6.90;90.60;;;;;;5009568;28;20190;-52
2022/12/03 06:41:58;;;;;;;4.78;2.90;;;6.90;90.60;;;;;;5004855;28;20765;-52
2022/12/03 06:44:28;;;;;;;3.50;3.13;;;6.90;90.70;;;;;;5004696;28;20268;-50
2022/12/03 06:46:58;;;;;;;2.85;2.40;;;6.90;91.10;;;;;;5012754;28;20218;-54
2022/12/03 06:49:26;;;;;;;4.75;3.20;;;6.90;90.60;;;;;;5017067;28;20481;-52
2022/12/03 06:51:56;;;;;;;3.05;2.45;;;6.90;90.60;;;;;;5009036;28;20209;-50
2022/12/03 06:54:25;;;;;;;3.60;3.15;;;6.90;90.60;;;;;;5004090;28;20214;-52
2022/12/03 06:56:53;;;;;;;4.07;3.17;;;6.90;90.60;;;;;;5038926;28;20608;-52
2022/12/03 06:59:22;;;;;;;4.50;3.22;;;6.90;90.60;;;;;;5003916;28;20206;-50
2022/12/03 07:01:50;;;;;;;4.15;3.15;;;6.90;90.60;;;;;;5019952;28;20701;-52
2022/12/03 07:04:21;;;;;;;3.90;2.70;;;6.90;90.60;;;;;;5009596;28;20224;-49
2022/12/03 07:06:49;;;;;;;4.10;2.72;;;6.90;90.60;;;;;;5009770;28;20673;-50
2022/12/03 07:09:18;;;;;;;4.38;2.92;;;6.90;90.60;;;;;;5011689;28;20700;-50
2022/12/03 07:11:46;;;;;;;5.47;2.80;;;6.90;90.60;;;;;;5013930;28;20194;-51
2022/12/03 07:14:15;;;;;;;3.35;2.70;;;6.90;90.60;;;;;;5009971;28;20213;-49
2022/12/03 07:16:43;;;;;;;3.47;3.00;;;6.90;90.60;;;;;;5007367;28;20281;-49
2022/12/03 07:19:12;;;;;;;3.25;2.72;;;6.90;90.60;;;;;;5003962;28;20741;-49
2022/12/03 07:21:42;;;;;;;2.55;2.33;;;6.80;90.60;;;;;;5007956;28;20210;-48
2022/12/03 07:24:11;;;;;;;4.43;3.42;;;6.80;90.60;;;;;;5008309;28;20217;-50
2022/12/03 07:26:39;;;;;;;4.05;3.10;;;6.90;90.60;;;;;;5011045;28;20209;-48
2022/12/03 07:29:08;;;;;;;3.92;2.45;;;6.80;90.60;;;;;;4997492;28;20230;-50
2022/12/03 07:31:37;;;;;;;3.25;2.92;;;6.80;90.60;;;;;;5044753;28;20225;-49
2022/12/03 07:34:06;;;;;;;3.60;2.63;;;6.80;90.60;;;;;;5028333;28;20213;-49
2022/12/03 07:36:34;;;;;;;2.90;2.60;;;6.80;90.60;;;;;;5028326;28;20190;-50
2022/12/03 07:39:05;;;;;;;3.58;3.10;;;6.80;90.60;;;;;;5027170;28;20340;-49
2022/12/03 07:41:33;;;;;;;3.70;2.80;;;6.80;90.60;;;;;;5027559;28;20650;-48
2022/12/03 07:44:01;;;;;;;4.30;2.70;;;6.80;90.60;;;;;;5027928;28;20217;-48
2022/12/03 07:46:30;;;;;;;3.25;2.95;;;6.80;90.50;;;;;;5026213;28;20244;-51
2022/12/03 07:48:58;;;;;;;4.32;2.47;;;6.80;90.60;;;;;;5027880;28;20205;-48
2022/12/03 07:51:27;;;;;;;2.97;2.40;;;6.80;90.60;;;;;;5031324;28;20233;-49
2022/12/03 07:53:59;;;;;;;3.13;2.45;;;6.80;90.60;;;;;;5017458;28;20221;-49
2022/12/03 07:56:29;;;;;;;3.20;2.30;;;6.80;90.60;;;;;;5032303;28;20228;-50
2022/12/03 07:58:58;;;;;;;2.95;2.75;;;6.80;90.60;;;;;;5020964;28;20229;-49
2022/12/03 08:01:26;;;;;;;8.85;5.82;;;6.80;90.60;;;;;;5025553;28;20446;-50
2022/12/03 08:03:55;;;;;;;8.32;5.30;;;6.80;87.30;;;;;;5032292;28;20204;-51
2022/12/03 08:06:23;;;;;;;7.50;4.50;;;6.80;88.40;;;;;;5021638;28;20760;-49
2022/12/03 08:08:51;;;;;;;8.63;5.35;;;6.80;88.80;;;;;;5006950;28;20193;-50
2022/12/03 08:11:20;;;;;;;9.23;5.35;;;6.80;89.20;;;;;;5010881;28;20186;-49
2022/12/03 08:13:49;;;;;;;9.10;5.32;;;6.80;89.40;;;;;;5013319;28;20308;-48
2022/12/03 08:16:21;;;;;;;5.70;5.03;;;6.80;89.40;;;;;;5008018;28;20353;-51
2022/12/03 08:18:51;;;;;;;6.85;5.20;;;6.80;89.50;;;;;;5011766;28;20197;-50
2022/12/03 08:21:21;;;;;;;6.88;5.55;;;6.80;89.60;;;;;;5007636;28;20221;-50
2022/12/03 08:23:49;;;;;;;6.03;4.40;;;6.80;89.60;;;;;;5007255;28;20213;-49
2022/12/03 08:26:22;;;;;;;6.10;4.40;;;6.70;89.50;;;;;;5006957;28;20249;-53
2022/12/03 08:28:53;;;;;;;6.78;4.88;;;6.80;89.80;;;;;;5000431;28;20222;-49
2022/12/03 08:31:24;;;;;;;7.82;4.95;;;6.70;89.60;;;;;;5005716;28;20515;-50
2022/12/03 08:34:15;;;;;;;7.00;4.40;;;6.70;89.60;;;;;;5007635;28;20229;-50
2022/12/03 08:36:43;;;;;;;4.55;3.75;;;6.70;89.60;;;;;;5018127;28;20213;-50
2022/12/03 08:39:28;;;;;;;6.85;5.57;;;6.70;89.70;;;;;;5010237;28;20205;-48
2022/12/03 08:44:49;;;;;;;6.35;4.63;;;6.70;89.80;;;;;;5022669;28;20213;-49
2022/12/03 08:47:20;;;;;;;6.00;4.78;;;6.80;89.90;;;;;;5029641;28;20225;-50
2022/12/03 08:49:53;;;;;;;5.93;4.50;;;6.70;89.80;;;;;;5008317;28;20206;-51
2022/12/03 08:52:31;;;;;;;6.05;4.03;;;6.70;89.80;;;;;;5021768;28;20767;-50
2022/12/03 08:55:10;;;;;;;5.25;4.05;;;6.70;89.80;;;;;;5055262;28;20296;-50
2022/12/03 08:57:42;;;;;;;5.60;4.15;;;6.70;89.80;;;;;;5024731;28;20221;-50
2022/12/03 09:00:19;;;;;;;5.65;4.30;;;6.70;90.00;;;;;;5018228;28;20288;-51
2022/12/03 09:02:49;;;;;;;6.43;5.07;;;6.70;89.90;;;;;;5026998;28;20753;-50
2022/12/03 09:05:21;;;;;;;4.85;4.15;;;6.70;89.90;;;;;;5026600;28;20265;-50
2022/12/03 09:07:49;;;;;;;5.00;4.05;;;6.70;90.00;;;;;;5029551;28;20595;-49
2022/12/03 09:10:18;;;;;;;6.72;4.40;;;6.70;89.90;;;;;;5033226;28;20251;-49
2022/12/03 09:12:46;;;;;;;5.47;4.05;;;6.70;89.90;;;;;;5012359;28;20213;-49
2022/12/03 09:15:16;;;;;;;5.82;4.07;;;6.70;90.00;;;;;;5036180;28;20639;-49
2022/12/03 09:17:44;;;;;;;6.50;3.88;;;6.70;90.00;;;;;;5011199;28;20225;-49
2022/12/03 09:20:13;;;;;;;8.88;3.97;;;6.70;90.00;;;;;;5008351;28;20186;-49
2022/12/03 09:22:42;;;;;;;5.28;3.70;;;6.70;90.00;;;;;;5008011;28;20503;-49
2022/12/03 09:25:11;;;;;;;6.35;3.92;;;6.70;90.00;;;;;;5008284;28;20249;-50
2022/12/03 09:27:39;;;;;;;5.00;4.07;;;6.70;90.00;;;;;;5033687;28;20654;-50
2022/12/03 09:30:08;;;;;;;4.70;3.50;;;6.70;90.00;;;;;;5003964;28;20222;-50
2022/12/03 09:32:39;;;;;;;6.10;3.97;;;6.70;90.00;;;;;;5023373;28;20231;-50
2022/12/03 09:35:08;;;;;;;4.28;3.65;;;6.70;90.00;;;;;;5023017;28;20217;-49
2022/12/03 09:37:37;;;;;;;5.30;3.78;;;6.70;90.00;;;;;;5009013;28;20249;-48
2022/12/03 09:40:07;;;;;;;7.50;3.85;;;6.70;90.00;;;;;;5006544;28;20252;-49
2022/12/03 09:42:36;;;;;;;7.32;4.45;;;6.70;90.00;;;;;;5013651;28;20217;-49
2022/12/03 09:45:09;;;;;;;6.15;3.60;;;6.70;90.00;;;;;;5001609;28;20213;-50
2022/12/03 09:47:40;;;;;;;5.80;4.28;;;6.70;90.00;;;;;;5020574;28;20221;-50
2022/12/03 09:50:13;;;;;;;6.85;4.35;;;6.70;90.00;;;;;;5026899;28;20201;-49
2022/12/03 09:52:43;;;;;;;4.90;4.22;;;6.70;90.00;;;;;;5021194;28;20220;-48
2022/12/03 09:55:16;;;;;;;5.15;3.45;;;6.70;90.00;;;;;;5018342;28;20223;-50
2022/12/03 09:57:45;;;;;;;4.65;2.83;;;6.70;90.00;;;;;;5010249;28;20214;-48
2022/12/03 10:00:17;;;;;;;3.95;3.25;;;6.70;90.00;;;;;;5006836;28;20208;-50
2022/12/03 10:02:48;;;;;;;4.85;4.28;;;6.70;90.00;;;;;;5005984;28;20661;-49
2022/12/03 10:05:19;;;;;;;6.88;3.55;;;6.70;90.00;;;;;;5009417;28;20273;-50
2022/12/03 10:07:50;;;;;;;5.53;3.78;;;6.70;90.00;;;;;;5006884;28;20608;-48
2022/12/03 10:10:21;;;;;;;5.43;3.75;;;6.70;90.00;;;;;;5013041;28;20197;-49
2022/12/03 10:12:53;;;;;;;5.22;3.47;;;6.70;90.00;;;;;;4990741;28;20959;-49
2022/12/03 10:15:23;;;;;;;3.92;3.47;;;6.70;90.00;;;;;;5000277;28;20221;-48
2022/12/03 10:17:54;;;;;;;5.70;3.55;;;6.70;90.00;;;;;;5001454;28;20283;-49
2022/12/03 10:20:24;;;;;;;5.55;3.50;;;6.70;90.00;;;;;;5009985;28;20197;-49
2022/12/03 10:22:53;;;;;;;4.35;3.40;;;6.70;90.00;;;;;;5022197;28;20580;-48
2022/12/03 10:25:22;;;;;;;6.80;4.47;;;6.70;90.00;;;;;;5024499;28;20243;-49
2022/12/03 10:27:59;;;;;;;10.98;4.45;;;6.70;90.00;;;;;;5007682;28;20249;-49
2022/12/03 10:30:28;;;;;;;3.70;2.83;;;6.70;89.90;;;;;;5032778;28;20248;-49
2022/12/03 10:33:01;;;;;;;5.43;3.42;;;6.70;90.00;;;;;;5005836;28;20222;-49
2022/12/03 10:35:38;;;;;;;3.40;2.47;;;6.70;90.50;;;;;;5014546;28;20598;-53
2022/12/03 10:38:18;;;;;;;3.85;3.42;;;6.70;90.00;;;;;;4999519;28;20252;-48
2022/12/03 10:40:46;;;;;;;5.15;3.30;;;6.70;90.00;;;;;;5020769;28;20194;-48
2022/12/03 10:43:20;;;;;;;5.40;3.38;;;6.70;90.00;;;;;;5024731;28;20218;-51
2022/12/03 10:45:50;;;;;;;4.07;3.10;;;6.70;90.00;;;;;;5036077;28;20207;-48
2022/12/03 10:48:24;;;;;;;4.32;3.30;;;6.70;90.00;;;;;;5046098;28;20655;-51
2022/12/03 10:50:55;;;;;;;4.35;2.97;;;6.70;90.00;;;;;;5012660;28;20204;-50
2022/12/03 10:53:27;;;;;;;4.10;3.33;;;6.70;90.00;;;;;;5034644;28;20591;-49
2022/12/03 10:55:58;;;;;;;3.67;3.00;;;6.70;90.00;;;;;;5035363;28;20555;-49
2022/12/03 10:58:29;;;;;;;5.60;3.35;;;6.70;90.00;;;;;;5021073;28;20564;-48
2022/12/03 11:00:59;;;;;;;4.70;3.05;;;6.70;90.00;;;;;;5026791;28;20221;-50
2022/12/03 11:03:33;;;;;;;5.93;3.03;;;6.60;90.00;;;;;;5002095;28;20248;-49
2022/12/03 11:06:03;;;;;;;5.10;3.03;;;6.60;90.00;;;;;;5007840;28;20194;-48
2022/12/03 11:08:35;;;;;;;5.18;3.72;;;6.70;90.00;;;;;;5018066;28;20555;-48
2022/12/03 11:11:06;;;;;;;3.78;3.35;;;6.60;90.00;;;;;;5019923;28;20610;-50
2022/12/03 11:13:59;;;;;;;4.00;3.47;;;6.70;90.00;;;;;;5006905;28;20275;-51
2022/12/03 11:17:08;;;;;;;5.40;2.67;;;6.60;90.00;;;;;;5012241;28;20729;-50
2022/12/03 11:19:49;;;;;;;4.40;2.60;;;6.60;90.00;;;;;;5005747;28;20197;-49
2022/12/03 11:22:27;;;;;;;3.22;2.47;;;6.60;90.00;;;;;;5020205;28;20672;-50
2022/12/03 11:25:49;;;;;;;3.40;2.80;;;6.60;90.00;;;;;;5042279;28;20225;-48
2022/12/03 11:28:35;;;;;;;4.22;2.70;;;6.60;90.00;;;;;;5041499;28;20282;-50
2022/12/03 11:31:10;;;;;;;4.32;3.17;;;6.70;90.00;;;;;;5046869;28;20189;-49
2022/12/03 11:33:40;;;;;;;4.07;2.75;;;6.60;90.00;;;;;;5045110;28;20596;-49
2022/12/03 11:36:19;;;;;;;4.07;2.88;;;6.60;90.00;;;;;;5035006;28;20840;-47
2022/12/03 11:39:08;;;;;;;3.88;2.85;;;6.60;90.00;;;;;;5040210;28;20197;-49
2022/12/03 11:41:36;;;;;;;4.07;3.30;;;6.60;90.00;;;;;;5074980;28;20186;-49
2022/12/03 11:44:32;;;;;;;4.78;3.25;;;6.60;90.00;;;;;;5043577;28;20304;-50
2022/12/03 11:47:09;;;;;;;4.10;3.10;;;6.60;90.50;;;;;;5037196;28;20255;-50
2022/12/03 11:49:47;;;;;;;2.88;2.15;;;6.60;90.00;;;;;;5021343;28;20207;-48
2022/12/03 11:52:27;;;;;;;3.78;2.85;;;6.60;90.00;;;;;;5013014;28;20249;-50
2022/12/03 11:55:03;;;;;;;4.70;3.13;;;6.60;90.00;;;;;;5002428;28;20206;-49
2022/12/03 11:57:37;;;;;;;4.45;3.40;;;6.60;90.00;;;;;;4999259;28;20778;-50
2022/12/03 12:00:19;;;;;;;3.47;3.08;;;6.60;90.00;;;;;;4999105;28;20218;-51
2022/12/03 12:02:48;;;;;;;4.60;3.42;;;6.60;90.00;;;;;;5019904;28;20685;-47
2022/12/03 12:05:27;;;;;;;4.30;3.60;;;6.60;90.50;;;;;;5058064;28;20221;-50
2022/12/03 12:07:57;;;;;;;4.45;3.30;;;6.60;90.00;;;;;;5034233;28;20223;-52
2022/12/03 12:10:47;;;;;;;3.13;2.33;;;6.60;90.00;;;;;;5030848;28;20202;-50
2022/12/03 12:13:53;;;;;;;3.63;2.90;;;6.60;90.00;;;;;;5021503;28;20216;-49
2022/12/03 12:16:49;;;;;;;3.53;3.03;;;6.60;90.00;;;;;;5019001;28;20201;-49
2022/12/03 12:19:38;;;;;;;4.45;3.58;;;6.60;90.00;;;;;;5035050;28;20562;-51
2022/12/03 12:22:34;;;;;;;4.10;2.58;;;6.60;90.00;;;;;;5026220;28;20217;-50
2022/12/03 12:25:05;;;;;;;4.85;3.40;;;6.60;90.00;;;;;;5014354;28;20225;-49
2022/12/03 12:27:38;;;;;;;4.25;2.60;;;6.60;90.00;;;;;;5025705;28;20241;-50
2022/12/03 12:30:09;;;;;;;5.28;3.38;;;6.60;90.00;;;;;;5024639;28;20193;-50
2022/12/03 12:32:45;;;;;;;2.65;2.42;;;6.60;90.00;;;;;;5026603;28;20284;-51
2022/12/03 12:35:16;;;;;;;6.35;4.78;;;6.60;90.00;;;;;;5034450;28;20269;-48
2022/12/03 12:37:52;;;;;;;13.38;7.82;;;6.60;90.00;;;;;;5022153;28;20264;-48
2022/12/03 12:40:30;;;;;;;12.27;7.20;;;6.60;88.50;;;;;;5019832;28;20189;-50
2022/12/03 12:43:01;;;;;;;8.73;6.97;;;6.60;88.50;;;;;;5008659;28;20222;-49
2022/12/03 12:45:42;;;;;;;9.43;6.18;;;6.60;88.50;;;;;;4993854;28;20537;-51
2022/12/03 12:48:16;;;;;;;9.18;5.85;;;6.60;88.50;;;;;;4998989;28;20209;-53
2022/12/03 12:50:50;;;;;;;9.13;7.53;;;6.60;88.80;;;;;;5007739;28;20220;-51
2022/12/03 12:53:22;;;;;;;8.43;5.90;;;6.60;88.90;;;;;;5005372;28;20305;-53
2022/12/03 12:55:56;;;;;;;9.38;5.55;;;6.60;89.00;;;;;;4997010;28;20230;-51
2022/12/03 12:58:26;;;;;;;6.90;5.95;;;6.60;89.10;;;;;;5005751;28;20221;-53
2022/12/03 13:00:59;;;;;;;7.78;5.95;;;6.60;89.10;;;;;;5005706;28;20277;-49
2022/12/03 13:03:32;;;;;;;8.45;5.80;;;6.60;89.20;;;;;;4995552;28;20211;-49
2022/12/03 13:06:02;;;;;;;6.78;4.70;;;6.60;89.20;;;;;;5003147;28;20280;-48
2022/12/03 13:08:33;;;;;;;6.05;4.80;;;6.60;89.10;;;;;;4999717;28;20224;-51
2022/12/03 13:11:04;;;;;;;8.98;6.68;;;6.60;89.30;;;;;;5006565;28;20661;-52
2022/12/03 13:13:39;;;;;;;9.70;6.03;;;6.60;89.20;;;;;;5006153;28;20787;-52
2022/12/03 13:16:17;;;;;;;9.43;6.78;;;6.60;89.30;;;;;;4995637;28;20252;-51
2022/12/03 13:18:48;;;;;;;8.82;4.97;;;6.60;89.40;;;;;;5001202;28;20239;-51
2022/12/03 13:21:27;;;;;;;8.57;4.93;;;6.60;89.40;;;;;;5003206;28;20238;-50
2022/12/03 13:23:57;;;;;;;7.93;5.03;;;6.60;89.40;;;;;;5033585;28;20217;-52
2022/12/03 13:26:35;;;;;;;6.43;5.65;;;6.60;89.50;;;;;;5005745;28;20205;-50
2022/12/03 13:29:13;;;;;;;7.55;5.45;;;6.60;89.50;;;;;;4997560;28;20206;-51
2022/12/03 13:31:46;;;;;;;8.02;5.63;;;6.60;89.40;;;;;;4992729;28;20757;-52
2022/12/03 13:34:33;;;;;;;7.25;4.93;;;6.60;89.50;;;;;;4984138;28;20218;-51
2022/12/03 13:37:03;;;;;;;7.35;5.28;;;6.60;89.50;;;;;;4998431;28;20351;-53
2022/12/03 13:39:33;;;;;;;6.90;5.57;;;6.60;89.40;;;;;;5001266;28;20190;-53
2022/12/03 13:45:06;;;;;;;6.63;4.88;;;6.60;89.60;;;;;;4990585;28;20212;-52
2022/12/03 13:47:34;;;;;;;8.05;5.10;;;6.60;89.60;;;;;;5009561;28;20303;-49